createdAt,value
2018-09-25T00:00:14.345Z,12.70
2018-09-25T00:02:47.940Z,12.90
2018-09-25T00:05:21.582Z,13.10
2018-09-25T00:07:55.295Z,13.00
2018-09-25T00:10:28.789Z,13.10
2018-09-25T00:13:02.171Z,13.10
2018-09-25T00:15:35.634Z,12.90
2018-09-25T00:18:10.299Z,12.90
2018-09-25T00:20:44.055Z,12.80
2018-09-25T00:23:17.435Z,12.70
2018-09-25T00:25:50.968Z,12.60
2018-09-25T00:28:24.511Z,12.70
2018-09-25T00:30:57.956Z,12.70
2018-09-25T00:33:31.499Z,12.70
2018-09-25T00:36:05.075Z,12.60
2018-09-25T00:38:38.511Z,12.70
2018-09-25T00:41:12.032Z,12.60
2018-09-25T00:43:45.616Z,12.50
2018-09-25T00:46:19.188Z,12.50
2018-09-25T00:48:52.579Z,12.60
2018-09-25T00:51:26.009Z,12.60
2018-09-25T00:53:59.568Z,12.60
2018-09-25T00:56:33.452Z,12.50
2018-09-25T00:59:07.154Z,12.60
2018-09-25T01:01:40.679Z,12.60
2018-09-25T01:04:14.288Z,12.60
2018-09-25T01:06:47.842Z,12.60
2018-09-25T01:09:21.410Z,12.40
2018-09-25T01:11:54.847Z,12.30
2018-09-25T01:14:28.373Z,12.10
2018-09-25T01:17:01.795Z,11.90
2018-09-25T01:19:35.206Z,12.10
2018-09-25T01:22:08.781Z,12.40
2018-09-25T01:24:42.431Z,12.30
2018-09-25T01:27:15.871Z,12.00
2018-09-25T01:29:49.371Z,12.00
2018-09-25T01:32:22.975Z,12.10
2018-09-25T01:34:56.512Z,12.20
2018-09-25T01:37:30.457Z,12.00
2018-09-25T01:40:04.165Z,11.90
2018-09-25T01:42:37.704Z,12.10
2018-09-25T01:45:11.367Z,12.20
2018-09-25T01:47:44.904Z,12.20
2018-09-25T01:50:18.536Z,12.20
2018-09-25T01:52:52.475Z,12.20
2018-09-25T01:55:26.047Z,12.10
2018-09-25T01:57:59.864Z,12.10
2018-09-25T02:00:33.461Z,12.20
2018-09-25T02:03:07.262Z,12.20
2018-09-25T02:05:40.897Z,12.20
2018-09-25T02:08:14.850Z,12.20
2018-09-25T02:10:48.495Z,12.20
2018-09-25T02:13:22.054Z,12.10
2018-09-25T02:15:55.685Z,12.20
2018-09-25T02:18:29.384Z,12.30
2018-09-25T02:21:02.875Z,12.30
2018-09-25T02:23:36.387Z,12.30
2018-09-25T02:26:10.271Z,12.20
2018-09-25T02:28:43.836Z,11.90
2018-09-25T02:31:17.531Z,11.90
2018-09-25T02:33:51.200Z,12.00
2018-09-25T02:36:24.899Z,12.00
2018-09-25T02:38:58.719Z,11.80
2018-09-25T02:41:32.175Z,11.70
2018-09-25T02:44:05.812Z,11.40
2018-09-25T02:46:39.397Z,11.50
2018-09-25T02:49:12.928Z,11.50
2018-09-25T02:51:46.952Z,11.40
2018-09-25T02:54:20.389Z,11.50
2018-09-25T02:56:53.798Z,11.50
2018-09-25T02:59:27.397Z,11.60
2018-09-25T03:02:00.907Z,11.60
2018-09-25T03:04:34.498Z,11.60
2018-09-25T03:07:08.056Z,11.40
2018-09-25T03:09:41.757Z,11.40
2018-09-25T03:12:15.116Z,11.60
2018-09-25T03:14:48.681Z,11.70
2018-09-25T03:17:22.168Z,11.80
2018-09-25T03:19:55.708Z,11.50
2018-09-25T03:22:29.444Z,11.60
2018-09-25T03:25:05.906Z,11.60
2018-09-25T03:27:44.231Z,11.70
2018-09-25T03:30:17.912Z,11.80
2018-09-25T03:32:51.567Z,11.70
2018-09-25T03:35:25.251Z,11.80
2018-09-25T03:38:01.764Z,11.60
2018-09-25T03:40:35.715Z,11.60
2018-09-25T03:43:09.048Z,11.60
2018-09-25T03:45:42.615Z,11.60
2018-09-25T03:48:16.060Z,11.60
2018-09-25T03:50:49.595Z,11.70
2018-09-25T03:53:23.136Z,11.80
2018-09-25T03:55:56.709Z,11.80
2018-09-25T03:58:30.410Z,11.60
2018-09-25T04:01:03.987Z,11.70
2018-09-25T04:03:37.992Z,11.60
2018-09-25T04:06:11.716Z,11.50
2018-09-25T04:08:45.073Z,11.50
2018-09-25T04:11:18.711Z,11.20
2018-09-25T04:13:52.123Z,11.30
2018-09-25T04:16:25.571Z,11.30
2018-09-25T04:18:59.096Z,11.40
2018-09-25T04:21:32.731Z,11.30
2018-09-25T04:24:06.512Z,11.40
2018-09-25T04:26:40.244Z,11.50
2018-09-25T04:29:13.817Z,11.60
2018-09-25T04:31:47.361Z,11.70
2018-09-25T04:34:20.902Z,11.70
2018-09-25T04:36:54.292Z,11.70
2018-09-25T04:39:27.779Z,11.60
2018-09-25T04:42:01.170Z,11.60
2018-09-25T04:44:34.761Z,11.60
2018-09-25T04:47:08.275Z,11.50
2018-09-25T04:49:41.750Z,11.50
2018-09-25T04:52:15.251Z,11.40
2018-09-25T04:54:48.826Z,11.50
2018-09-25T04:57:22.756Z,11.50
2018-09-25T04:59:56.327Z,11.50
2018-09-25T05:02:29.951Z,11.50
2018-09-25T05:05:03.618Z,11.40
2018-09-25T05:07:37.240Z,11.40
2018-09-25T05:10:10.892Z,11.40
2018-09-25T05:12:44.447Z,11.30
2018-09-25T05:15:17.932Z,11.20
2018-09-25T05:17:51.369Z,11.20
2018-09-25T05:20:24.935Z,11.10
2018-09-25T05:22:58.376Z,11.10
2018-09-25T05:25:31.832Z,11.10
2018-09-25T05:28:05.326Z,11.00
2018-09-25T05:30:38.620Z,11.00
2018-09-25T05:33:12.166Z,11.00
2018-09-25T05:35:45.855Z,11.00
2018-09-25T05:38:19.431Z,11.00
2018-09-25T05:40:52.932Z,11.00
2018-09-25T05:43:26.311Z,11.00
2018-09-25T05:45:59.895Z,11.10
2018-09-25T05:48:33.751Z,11.20
2018-09-25T05:51:07.150Z,11.20
2018-09-25T05:53:40.726Z,11.10
2018-09-25T05:56:14.189Z,11.00
2018-09-25T05:58:47.683Z,11.00
2018-09-25T06:01:21.149Z,11.00
2018-09-25T06:03:54.724Z,12.60
2018-09-25T06:06:28.160Z,11.20
2018-09-25T06:09:01.660Z,11.30
2018-09-25T06:11:36.512Z,11.50
2018-09-25T06:14:10.072Z,11.60
2018-09-25T06:16:43.662Z,11.60
2018-09-25T06:19:17.079Z,11.80
2018-09-25T06:21:51.309Z,11.80
2018-09-25T06:24:24.784Z,12.00
2018-09-25T06:26:58.355Z,12.10
2018-09-25T06:29:31.886Z,12.20
2018-09-25T06:32:05.372Z,12.70
2018-09-25T06:34:38.909Z,13.20
2018-09-25T06:37:12.345Z,13.30
2018-09-25T06:39:45.888Z,13.30
2018-09-25T06:42:19.516Z,13.20
2018-09-25T06:44:53.083Z,13.10
2018-09-25T06:47:26.780Z,12.90
2018-09-25T06:50:00.363Z,12.90
2018-09-25T06:52:34.139Z,13.00
2018-09-25T06:55:07.784Z,13.00
2018-09-25T06:57:41.164Z,12.90
2018-09-25T07:00:15.012Z,12.60
2018-09-25T07:02:48.920Z,12.60
2018-09-25T07:05:22.466Z,12.90
2018-09-25T07:07:55.979Z,13.30
2018-09-25T07:10:29.857Z,13.50
2018-09-25T07:13:03.278Z,13.80
2018-09-25T07:15:36.847Z,13.60
2018-09-25T07:18:10.478Z,13.50
2018-09-25T07:20:43.996Z,13.50
2018-09-25T07:23:17.679Z,13.60
2018-09-25T07:25:51.253Z,13.90
2018-09-25T07:28:24.880Z,13.90
2018-09-25T07:30:58.230Z,13.90
2018-09-25T07:33:31.960Z,13.80
2018-09-25T07:36:05.479Z,13.90
2018-09-25T07:38:38.894Z,13.60
2018-09-25T07:41:12.416Z,13.80
2018-09-25T07:43:46.021Z,13.50
2018-09-25T07:49:24.104Z,13.90
2018-09-25T07:51:57.890Z,13.50
2018-09-25T07:54:31.455Z,13.70
2018-09-25T07:57:04.923Z,13.60
2018-09-25T07:59:38.564Z,13.90
2018-09-25T08:02:12.161Z,14.30
2018-09-25T08:04:45.699Z,14.60
2018-09-25T08:07:19.215Z,14.70
2018-09-25T08:09:52.901Z,14.70
2018-09-25T08:12:26.420Z,14.80
2018-09-25T08:15:00.147Z,15.20
2018-09-25T08:17:33.615Z,15.40
2018-09-25T08:20:06.923Z,15.50
2018-09-25T08:22:40.497Z,15.70
2018-09-25T08:25:13.891Z,15.90
2018-09-25T08:27:48.263Z,16.00
2018-09-25T08:30:22.687Z,16.10
2018-09-25T08:32:57.103Z,16.30
2018-09-25T08:35:31.011Z,16.80
2018-09-25T08:38:04.868Z,17.00
2018-09-25T08:40:38.297Z,17.10
2018-09-25T08:43:11.700Z,17.10
2018-09-25T08:45:45.051Z,17.00
2018-09-25T08:48:18.414Z,16.80
2018-09-25T08:50:51.863Z,16.90
2018-09-25T08:53:25.307Z,17.20
2018-09-25T08:55:58.879Z,17.60
2018-09-25T08:58:32.692Z,18.70
2018-09-25T09:01:06.407Z,21.10
2018-09-25T09:03:39.848Z,23.60
2018-09-25T09:06:13.464Z,25.20
2018-09-25T09:08:48.026Z,27.40
2018-09-25T09:11:21.568Z,29.20
2018-09-25T09:13:55.047Z,30.20
2018-09-25T09:16:28.529Z,30.70
2018-09-25T09:19:02.601Z,31.70
2018-09-25T09:21:36.407Z,32.50
2018-09-25T09:24:10.226Z,33.20
2018-09-25T09:29:17.505Z,34.40
2018-09-25T09:31:51.030Z,34.40
2018-09-25T09:34:24.548Z,34.80
2018-09-25T09:36:58.333Z,35.20
2018-09-25T09:39:31.811Z,35.50
2018-09-25T09:42:05.571Z,35.80
2018-09-25T09:44:39.780Z,35.90
2018-09-25T09:47:13.818Z,35.70
2018-09-25T09:49:48.917Z,35.10
2018-09-25T09:52:22.979Z,35.30
2018-09-25T09:54:56.570Z,35.60
2018-09-25T09:57:30.216Z,35.80
2018-09-25T10:00:03.787Z,36.50
2018-09-25T10:02:37.263Z,36.90
2018-09-25T10:05:10.716Z,37.00
2018-09-25T10:07:44.351Z,37.10
2018-09-25T10:10:17.744Z,36.80
2018-09-25T10:12:51.038Z,36.60
2018-09-25T10:15:24.619Z,37.10
2018-09-25T10:17:58.170Z,37.00
2018-09-25T10:20:31.463Z,37.00
2018-09-25T10:23:04.924Z,37.10
2018-09-25T10:25:38.474Z,37.50
2018-09-25T10:28:12.295Z,37.80
2018-09-25T10:30:45.887Z,38.20
2018-09-25T10:33:19.259Z,38.60
2018-09-25T10:35:52.708Z,38.80
2018-09-25T10:38:26.373Z,38.80
2018-09-25T10:40:59.912Z,37.90
2018-09-25T10:43:33.332Z,36.10
2018-09-25T10:46:06.770Z,34.30
2018-09-25T10:48:40.243Z,32.90
2018-09-25T10:51:13.915Z,31.40
2018-09-25T10:53:48.303Z,29.80
2018-09-25T10:56:22.040Z,28.30
2018-09-25T10:58:55.615Z,27.10
2018-09-25T11:01:29.323Z,26.20
2018-09-25T11:04:02.958Z,25.40
2018-09-25T11:06:36.503Z,24.80
2018-09-25T11:09:13.266Z,24.20
2018-09-25T11:11:47.351Z,23.80
2018-09-25T11:14:20.903Z,23.50
2018-09-25T11:16:54.647Z,23.20
2018-09-25T11:19:28.218Z,22.90
2018-09-25T11:22:01.933Z,22.70
2018-09-25T11:24:35.627Z,22.60
2018-09-25T11:27:09.247Z,22.30
2018-09-25T11:29:42.749Z,22.20
2018-09-25T11:32:16.419Z,22.00
2018-09-25T11:34:50.039Z,21.80
2018-09-25T11:37:23.631Z,21.90
2018-09-25T11:39:57.215Z,21.80
2018-09-25T11:42:30.771Z,21.70
2018-09-25T11:45:04.319Z,21.60
2018-09-25T11:47:37.924Z,21.40
2018-09-25T11:50:11.677Z,21.30
2018-09-25T11:52:46.177Z,21.10
2018-09-25T11:55:20.571Z,20.90
2018-09-25T11:57:55.006Z,21.00
2018-09-25T12:00:29.282Z,21.30
2018-09-25T12:03:03.666Z,21.10
2018-09-25T12:05:37.897Z,21.00
2018-09-25T12:08:12.122Z,21.30
2018-09-25T12:10:45.899Z,22.00
2018-09-25T12:13:19.483Z,23.30
2018-09-25T12:15:52.950Z,24.90
2018-09-25T12:18:26.692Z,25.40
2018-09-25T12:21:00.287Z,25.00
2018-09-25T12:23:33.809Z,25.10
2018-09-25T12:26:07.471Z,25.20
2018-09-25T12:28:41.190Z,25.30
2018-09-25T12:31:15.052Z,25.40
2018-09-25T12:33:48.957Z,25.70
2018-09-25T12:36:22.528Z,26.50
2018-09-25T12:38:56.532Z,27.10
2018-09-25T12:41:30.114Z,27.20
2018-09-25T12:44:03.775Z,27.90
2018-09-25T12:46:37.424Z,29.30
2018-09-25T12:49:11.199Z,29.90
2018-09-25T12:51:44.808Z,29.60
2018-09-25T12:54:18.839Z,29.20
2018-09-25T12:56:52.639Z,29.60
2018-09-25T12:59:26.450Z,30.30
2018-09-25T13:02:00.708Z,31.60
2018-09-25T13:04:34.380Z,32.10
2018-09-25T13:07:08.482Z,32.30
2018-09-25T13:09:41.963Z,31.90
2018-09-25T13:12:15.592Z,31.00
2018-09-25T13:14:49.201Z,31.00
2018-09-25T13:17:22.684Z,31.60
2018-09-25T13:19:56.124Z,31.20
2018-09-25T13:22:30.148Z,31.40
2018-09-25T13:25:03.848Z,30.70
2018-09-25T13:27:37.299Z,30.80
2018-09-25T13:30:10.915Z,30.80
2018-09-25T13:32:44.471Z,29.60
2018-09-25T13:35:18.356Z,29.60
2018-09-25T13:37:51.928Z,30.30
2018-09-25T13:40:25.427Z,30.30
2018-09-25T13:42:59.028Z,29.20
2018-09-25T13:45:33.004Z,28.60
2018-09-25T13:48:06.691Z,28.20
2018-09-25T13:50:40.548Z,26.60
2018-09-25T13:53:14.796Z,26.10
2018-09-25T13:55:48.676Z,25.70
2018-09-25T13:58:22.946Z,25.30
2018-09-25T14:00:56.395Z,25.10
2018-09-25T14:03:30.140Z,25.40
2018-09-25T14:06:03.718Z,26.20
2018-09-25T14:08:37.253Z,26.00
2018-09-25T14:11:10.782Z,26.60
2018-09-25T14:13:44.533Z,26.90
2018-09-25T14:16:18.256Z,27.10
2018-09-25T14:18:51.796Z,26.80
2018-09-25T14:21:25.276Z,26.50
2018-09-25T14:23:59.060Z,26.40
2018-09-25T14:26:32.797Z,26.40
2018-09-25T14:29:06.319Z,27.10
2018-09-25T14:31:40.039Z,27.70
2018-09-25T14:34:13.655Z,27.70
2018-09-25T14:36:47.918Z,28.00
2018-09-25T14:39:28.441Z,27.90
2018-09-25T14:42:01.887Z,27.30
2018-09-25T14:44:35.403Z,26.80
2018-09-25T14:47:08.977Z,26.40
2018-09-25T14:49:42.727Z,26.00
2018-09-25T14:52:16.344Z,25.50
2018-09-25T14:54:49.988Z,24.80
2018-09-25T14:57:23.662Z,24.80
2018-09-25T14:59:57.208Z,24.40
2018-09-25T15:02:30.935Z,23.90
2018-09-25T15:05:04.352Z,23.80
2018-09-25T15:07:37.923Z,23.80
2018-09-25T15:10:11.679Z,23.70
2018-09-25T15:12:45.279Z,23.50
2018-09-25T15:15:18.769Z,23.50
2018-09-25T15:17:52.593Z,23.30
2018-09-25T15:20:26.139Z,23.20
2018-09-25T15:22:59.628Z,23.20
2018-09-25T15:25:33.302Z,23.00
2018-09-25T15:28:06.824Z,23.00
2018-09-25T15:30:40.315Z,22.80
2018-09-25T15:33:13.776Z,22.60
2018-09-25T15:35:47.450Z,22.40
2018-09-25T15:38:21.600Z,22.30
2018-09-25T15:40:55.200Z,22.20
2018-09-25T15:43:28.880Z,22.30
2018-09-25T15:46:02.469Z,22.10
2018-09-25T15:48:36.204Z,22.10
2018-09-25T15:51:09.747Z,22.10
2018-09-25T15:53:43.328Z,22.00
2018-09-25T15:56:16.880Z,21.90
2018-09-25T15:58:50.299Z,21.90
2018-09-25T16:01:25.795Z,22.00
2018-09-25T16:03:59.338Z,22.10
2018-09-25T16:06:32.890Z,22.20
2018-09-25T16:09:06.532Z,22.10
2018-09-25T16:11:40.292Z,22.10
2018-09-25T16:14:13.972Z,22.00
2018-09-25T16:16:47.540Z,21.90
2018-09-25T16:19:21.007Z,21.90
2018-09-25T16:21:54.601Z,21.80
2018-09-25T16:24:28.270Z,21.70
2018-09-25T16:27:01.843Z,21.60
2018-09-25T16:29:35.296Z,21.60
2018-09-25T16:32:09.055Z,21.40
2018-09-25T16:34:42.885Z,21.40
2018-09-25T16:37:16.476Z,21.30
2018-09-25T16:39:49.975Z,21.10
2018-09-25T16:42:23.972Z,21.00
2018-09-25T16:44:57.516Z,20.80
2018-09-25T16:47:31.050Z,20.70
2018-09-25T16:50:04.532Z,20.60
2018-09-25T16:52:38.809Z,20.50
2018-09-25T16:55:12.491Z,20.40
2018-09-25T16:57:46.203Z,20.30
2018-09-25T17:00:19.728Z,20.20
2018-09-25T17:02:53.411Z,20.10
2018-09-25T17:05:27.216Z,20.00
2018-09-25T17:08:01.232Z,20.00
2018-09-25T17:10:34.698Z,19.90
2018-09-25T17:13:08.745Z,19.60
2018-09-25T17:15:42.319Z,19.60
2018-09-25T17:18:15.914Z,19.40
2018-09-25T17:20:49.544Z,19.30
2018-09-25T17:23:23.292Z,19.30
2018-09-25T17:25:57.024Z,19.20
2018-09-25T17:28:30.510Z,19.20
2018-09-25T17:31:04.157Z,19.00
2018-09-25T17:33:37.823Z,18.90
2018-09-25T17:36:11.331Z,18.70
2018-09-25T17:38:44.967Z,18.60
2018-09-25T17:41:18.645Z,18.50
2018-09-25T17:43:52.372Z,18.50
2018-09-25T17:46:26.056Z,18.50
2018-09-25T17:49:00.807Z,18.40
2018-09-25T17:51:35.884Z,18.20
2018-09-25T17:54:09.997Z,18.10
2018-09-25T17:56:44.523Z,18.00
2018-09-25T17:59:18.590Z,17.90
2018-09-25T18:01:53.105Z,17.80
2018-09-25T18:04:27.245Z,17.60
2018-09-25T18:07:01.688Z,17.60
2018-09-25T18:09:35.200Z,17.50
2018-09-25T18:12:08.703Z,17.50
2018-09-25T18:14:42.321Z,17.40
2018-09-25T18:17:16.090Z,17.30
2018-09-25T18:19:49.766Z,17.20
2018-09-25T18:22:23.322Z,17.20
2018-09-25T18:24:56.896Z,17.20
2018-09-25T18:27:30.554Z,17.10
2018-09-25T18:30:04.032Z,17.00
2018-09-25T18:32:37.535Z,17.00
2018-09-25T18:35:11.151Z,16.90
2018-09-25T18:37:44.667Z,16.90
2018-09-25T18:40:18.243Z,16.90
2018-09-25T18:42:51.951Z,16.80
2018-09-25T18:45:25.668Z,16.80
2018-09-25T18:47:59.520Z,16.70
2018-09-25T18:50:33.361Z,16.70
2018-09-25T18:53:06.956Z,16.70
2018-09-25T18:55:40.827Z,16.60
2018-09-25T18:58:14.273Z,16.60
2018-09-25T19:00:47.762Z,16.50
2018-09-25T19:03:21.599Z,16.40
2018-09-25T19:05:55.141Z,16.40
2018-09-25T19:08:28.636Z,16.40
2018-09-25T19:11:02.502Z,16.30
2018-09-25T19:13:37.200Z,16.20
2018-09-25T19:16:11.015Z,16.20
2018-09-25T19:18:44.820Z,16.10
2018-09-25T19:21:18.179Z,16.10
2018-09-25T19:23:51.936Z,16.00
2018-09-25T19:26:25.316Z,15.40
2018-09-25T19:28:58.887Z,15.90
2018-09-25T19:31:32.773Z,15.80
2018-09-25T19:34:06.464Z,15.70
2018-09-25T19:36:39.947Z,15.70
2018-09-25T19:39:14.405Z,15.70
2018-09-25T19:41:48.255Z,15.60
2018-09-25T19:44:21.804Z,15.50
2018-09-25T19:46:55.407Z,15.50
2018-09-25T19:49:28.966Z,15.50
2018-09-25T19:52:02.461Z,15.50
2018-09-25T19:54:35.829Z,15.40
2018-09-25T19:57:09.419Z,15.40
2018-09-25T19:59:43.029Z,15.30
2018-09-25T20:02:16.692Z,15.30
2018-09-25T20:04:50.797Z,15.00
2018-09-25T20:07:24.603Z,15.00
2018-09-25T20:09:58.184Z,15.10
2018-09-25T20:12:31.736Z,15.40
2018-09-25T20:15:05.227Z,15.60
2018-09-25T20:17:39.268Z,15.40
2018-09-25T20:20:13.291Z,15.50
2018-09-25T20:22:46.803Z,15.60
2018-09-25T20:25:21.069Z,15.50
2018-09-25T20:27:55.265Z,15.50
2018-09-25T20:30:28.964Z,15.30
2018-09-25T20:33:02.547Z,15.10
2018-09-25T20:35:36.275Z,15.00
2018-09-25T20:38:09.863Z,14.80
2018-09-25T20:40:44.455Z,14.60
2018-09-25T20:43:18.165Z,14.60
2018-09-25T20:45:51.891Z,14.70
2018-09-25T20:48:25.663Z,14.50
2018-09-25T20:50:59.191Z,14.20
2018-09-25T20:53:32.650Z,14.10
2018-09-25T20:56:06.323Z,14.10
2018-09-25T20:58:40.040Z,14.00
2018-09-25T21:01:13.775Z,13.90
2018-09-25T21:03:47.635Z,13.90
2018-09-25T21:06:21.653Z,13.90
2018-09-25T21:08:55.246Z,13.70
2018-09-25T21:11:28.754Z,14.00
2018-09-25T21:14:02.372Z,13.90
2018-09-25T21:16:36.035Z,14.20
2018-09-25T21:19:09.666Z,14.00
2018-09-25T21:21:43.319Z,14.00
2018-09-25T21:24:17.339Z,14.10
2018-09-25T21:26:50.834Z,13.90
2018-09-25T21:29:24.407Z,13.90
2018-09-25T21:31:57.834Z,13.80
2018-09-25T21:34:31.349Z,13.60
2018-09-25T21:37:04.822Z,13.60
2018-09-25T21:39:38.418Z,13.60
2018-09-25T21:42:12.097Z,13.30
2018-09-25T21:44:45.794Z,13.00
2018-09-25T21:47:19.463Z,13.00
2018-09-25T21:49:53.406Z,13.20
2018-09-25T21:52:27.005Z,13.30
2018-09-25T21:55:00.807Z,13.70
2018-09-25T21:57:34.556Z,13.40
2018-09-25T22:00:07.900Z,13.50
2018-09-25T22:02:41.379Z,13.30
2018-09-25T22:05:14.999Z,13.30
2018-09-25T22:07:48.600Z,13.30
2018-09-25T22:10:22.333Z,13.30
2018-09-25T22:12:55.736Z,13.30
2018-09-25T22:15:29.418Z,13.30
2018-09-25T22:20:36.444Z,13.20
2018-09-25T22:23:10.129Z,13.30
2018-09-25T22:28:17.152Z,13.50
2018-09-25T22:30:50.706Z,13.30
2018-09-25T22:33:24.182Z,13.60
2018-09-25T22:35:57.920Z,13.70
2018-09-25T22:38:31.467Z,13.70
2018-09-25T22:41:05.346Z,13.70
2018-09-25T22:43:38.906Z,13.50
2018-09-25T22:46:12.531Z,13.50
2018-09-25T22:48:45.979Z,13.40
2018-09-25T22:51:19.663Z,13.20
2018-09-25T22:53:53.599Z,13.10
2018-09-25T22:56:27.144Z,13.30
2018-09-25T22:59:00.840Z,13.00
2018-09-25T23:01:34.662Z,12.90
2018-09-25T23:04:08.374Z,12.90
2018-09-25T23:06:41.995Z,12.80
2018-09-25T23:09:15.659Z,12.90
2018-09-25T23:11:49.241Z,12.90
2018-09-25T23:14:23.139Z,13.10
2018-09-25T23:16:56.791Z,12.80
2018-09-25T23:19:30.189Z,12.80
2018-09-25T23:22:03.790Z,12.90
2018-09-25T23:24:37.494Z,13.10
2018-09-25T23:27:11.416Z,13.20
2018-09-25T23:29:44.789Z,12.90
2018-09-25T23:32:18.695Z,13.20
2018-09-25T23:34:52.265Z,13.50
2018-09-25T23:37:25.793Z,13.70
2018-09-25T23:40:57.090Z,13.70
2018-09-25T23:43:44.479Z,13.90
2018-09-25T23:46:17.914Z,13.50
2018-09-25T23:48:57.257Z,13.60
2018-09-25T23:51:34.892Z,13.80
2018-09-25T23:54:06.408Z,13.30
2018-09-25T23:56:38.079Z,13.60
2018-09-25T23:59:12.451Z,13.70
